| Temperature (°F) | Max | Average | Min |
|---|---|---|---|
| Max Temperature | 99 | 93.1 | 84 |
| Avg Temperature | 83.59 | 78.28 | 71.32 |
| Min Temperature | 69 | 64.23 | 60 |
| Precipitation (in) | Max | Average | Min | Sum |
|---|---|---|---|---|
| Precipitation | 1.12 | 0.08 | 0 | 2.5 |
| Dew Point (°F) | Max | Average | Min |
|---|---|---|---|
| Dew Point | 57.49 | 47.88 | 32.75 |
| Wind (mph) | Max | Average | Min |
|---|---|---|---|
| Wind | 28 | 20.13 | 12 |
| Gust Wind | 41 | 20.43 | 9 |
| Sea Level Pressure (in) | Max | Average | Min |
|---|---|---|---|
| Sea Level Pressure | 24.8 | 24.72 | 24.6 |
| Date | Temp High/Low | Dew Pt High/Low | Humidity | Wind | Max Wind | Wind Gust | Pressure | Precip. | Condition |
|---|---|---|---|---|---|---|---|---|---|
| 8/1/2026 | 96 °F / 69 °F | 60 °F / 49 °F | 46 % | 28 mph | - | 24.76 in | 0.25 in | ||
| 8/2/2026 | 92 °F / 65 °F | 63 °F / 45 °F | 47 % | 12 mph | - | 24.71 in | 0 in | ||
| 8/3/2026 | 96 °F / 66 °F | 61 °F / 46 °F | 47 % | 25 mph | - | 24.62 in | 0.19 in | ||
| 8/4/2026 | 98 °F / 69 °F | 62 °F / 42 °F | 46 % | 24 mph | - | 24.61 in | 0.43 in | ||
| 8/5/2026 | 96 °F / 63 °F | 58 °F / 44 °F | 46 % | 20 mph | - | 24.67 in | 0.2 in | ||
| 8/6/2026 | 96 °F / 67 °F | 58 °F / 40 °F | 37 % | 28 mph | - | 24.71 in | 0 in | ||
| 8/7/2026 | 97 °F / 64 °F | 62 °F / 38 °F | 44 % | 24 mph | - | 24.76 in | 0.11 in | ||
| 8/8/2026 | 92 °F / 61 °F | 61 °F / 43 °F | 46 % | 14 mph | - | 24.77 in | 0 in | ||
| 8/9/2026 | 93 °F / 64 °F | 55 °F / 35 °F | 33 % | 13 mph | - | 24.71 in | 0 in | ||
| 8/10/2026 | 95 °F / 63 °F | 49 °F / 37 °F | 31 % | 20 mph | - | 24.7 in | 0 in | ||
| 8/11/2026 | 92 °F / 65 °F | 60 °F / 40 °F | 40 % | 26 mph | - | 24.69 in | 0.71 in | ||
| 8/12/2026 | 82 °F / 63 °F | 62 °F / 50 °F | 62 % | 17 mph | - | 24.66 in | 0.41 in | ||
| 8/13/2026 | 84 °F / 61 °F | 61 °F / 49 °F | 66 % | 21 mph | - | 24.67 in | 0.05 in | ||
| 8/14/2026 | 84 °F / 65 °F | 64 °F / 50 °F | 62 % | 16 mph | - | 24.73 in | 0.14 in | ||
| 8/15/2026 | 89 °F / 60 °F | 57 °F / 45 °F | 50 % | 16 mph | - | 24.78 in | 0 in | ||
| 8/16/2026 | 91 °F / 61 °F | 56 °F / 42 °F | 44 % | 23 mph | - | 24.78 in | 0 in | ||
| 8/17/2026 | 87 °F / 63 °F | 58 °F / 46 °F | 45 % | 14 mph | - | 24.8 in | 0 in | ||
| 8/18/2026 | 90 °F / 61 °F | 55 °F / 42 °F | 42 % | 13 mph | - | 24.78 in | 0 in | ||
| 8/19/2026 | 95 °F / 65 °F | 60 °F / 42 °F | 40 % | 24 mph | - | 24.72 in | 0.01 in | ||
| 8/20/2026 | 94 °F / 60 °F | 51 °F / 37 °F | 37 % | 20 mph | - | 24.74 in | 0 in | ||
| 8/21/2026 | 96 °F / 66 °F | 51 °F / 37 °F | 29 % | 26 mph | - | 24.77 in | 0 in | ||
| 8/22/2026 | 95 °F / 69 °F | 53 °F / 36 °F | 28 % | 17 mph | - | 24.78 in | 0 in | ||
| 8/23/2026 | 96 °F / 61 °F | 48 °F / 27 °F | 26 % | 14 mph | - | 24.75 in | 0 in | ||
| 8/24/2026 | 97 °F / 62 °F | 42 °F / 30 °F | 21 % | 15 mph | - | 24.73 in | 0 in | ||
| 8/25/2026 | 99 °F / 64 °F | 43 °F / 27 °F | 20 % | 15 mph | - | 24.72 in | 0 in | ||
| 8/26/2026 | 97 °F / 63 °F | 38 °F / 29 °F | 19 % | 15 mph | - | 24.74 in | 0 in | ||
| 8/27/2026 | 95 °F / 63 °F | 51 °F / 36 °F | 28 % | 22 mph | - | 24.76 in | 0 in | ||
| 8/28/2026 | 94 °F / 64 °F | 51 °F / 42 °F | 34 % | 13 mph | - | 24.76 in | 0 in | ||
| 8/29/2026 | 95 °F / 64 °F | 47 °F / 34 °F | 27 % | 12 mph | - | 24.72 in | 0 in | ||
| 8/30/2026 | 92 °F / 67 °F | 55 °F / 40 °F | 34 % | 20 mph | - | 24.68 in | 0 in | ||
| 8/31/2026 | 75 °F / 68 °F | 53 °F / 46 °F | 45 % | 18 mph | - | 24.67 in | 0 in |